Main page
METAR-TAF:

METAR-TAF

Airports :

Haneda Airport

Tokyo-Haneda, Japan

latitude: 35-33N, longitude: 139-47E, elevation: 5 m

Current weather observation

The report was made 31 minutes ago, at 01:00 UTC
Wind 10 kt from the South/Southeast
Temperature 19°C
Humidity 73%
Pressure 1011 hPa
Visibility 10 km or more
Few clouds at a height of 3000 ft
Broken clouds

METAR: RJTT 190100Z 16010KT 9999 FEW030 BKN/// 19/14 Q1011 NOSIG RMK 1CU030 A2987

Time: 10:31 (01:31 UTC)

Forecast

The report was made 2 hours and 26 minutes ago, at 23:05 UTC
Forecast valid from 19 at 00 UTC to 20 at 06 UTC
Wind 10 kt from the South
Visibility 10 km or more
Few clouds at a height of 3000 ft
Becoming
from 19 at 07 UTC to 19 at 09 UTC
Wind 8 kt from the North/Northeast
Becoming
from 20 at 00 UTC to 20 at 03 UTC
Wind 10 kt from the East/Southeast
Becoming
from 20 at 03 UTC to 20 at 06 UTC
Wind 16 kt from the South

TAF: RJTT 182305Z 1900/2006 18010KT 9999 FEW030 BECMG 1907/1909 02008KT BECMG 2000/2003 12010KT BECMG 2003/2006 18016KT

Weather observations and forecasts of more than 4000 airports (METAR and TAF reports).

The available stations are represented by yellow and red dots on the map.

Hover mouse over dot to see the name of the station.

Then click to see weather observations and forecasts.

To change the map : click on the green buttons with a black cross to zoom in, on the green button with a dash to zoom out, or on the green arrows for adjacent maps.


METAR-TAF: